createdAt,value
2019-05-06T00:01:14.950Z,6.62
2019-05-06T00:03:44.968Z,5.50
2019-05-06T00:06:14.685Z,5.22
2019-05-06T00:08:44.338Z,6.30
2019-05-06T00:11:14.281Z,7.20
2019-05-06T00:13:44.558Z,5.60
2019-05-06T00:16:14.542Z,4.35
2019-05-06T00:18:44.922Z,6.12
2019-05-06T00:21:14.943Z,7.37
2019-05-06T00:23:49.068Z,10.05
2019-05-06T00:26:36.504Z,6.67
2019-05-06T00:29:10.873Z,6.90
2019-05-06T00:31:40.454Z,7.47
2019-05-06T00:34:10.306Z,8.25
2019-05-06T00:36:40.262Z,4.58
2019-05-06T00:39:27.811Z,3.67
2019-05-06T00:41:59.070Z,4.50
2019-05-06T00:44:28.666Z,7.50
2019-05-06T00:46:58.258Z,4.42
2019-05-06T00:49:27.945Z,6.03
2019-05-06T00:51:57.774Z,3.30
2019-05-06T00:54:30.597Z,7.92
2019-05-06T00:57:00.203Z,6.92
2019-05-06T00:59:30.050Z,6.50
2019-05-06T01:01:59.986Z,7.03
2019-05-06T01:04:29.609Z,6.53
2019-05-06T01:06:59.210Z,8.43
2019-05-06T01:09:29.614Z,8.13
2019-05-06T01:12:00.267Z,6.03
2019-05-06T01:14:46.369Z,6.45
2019-05-06T01:17:15.973Z,4.28
2019-05-06T01:19:45.948Z,6.20
2019-05-06T01:22:15.794Z,5.83
2019-05-06T01:24:45.461Z,6.50
2019-05-06T01:27:15.330Z,6.42
2019-05-06T01:29:45.171Z,6.08
2019-05-06T01:32:14.782Z,4.80
2019-05-06T01:34:44.722Z,4.05
2019-05-06T01:37:14.379Z,8.58
2019-05-06T01:40:03.938Z,5.78
2019-05-06T01:42:34.597Z,4.35
2019-05-06T01:45:06.181Z,4.15
2019-05-06T01:47:35.858Z,6.53
2019-05-06T01:50:07.368Z,7.83
2019-05-06T01:52:36.974Z,7.33
2019-05-06T01:55:08.149Z,6.60
2019-05-06T01:57:37.741Z,6.85
2019-05-06T02:03:30.813Z,7.33
2019-05-06T02:06:18.618Z,7.75
2019-05-06T02:08:41.522Z,6.00
2019-05-06T02:11:11.178Z,5.50
2019-05-06T02:13:40.779Z,5.65
2019-05-06T02:16:10.570Z,6.05
2019-05-06T02:18:40.400Z,4.42
2019-05-06T02:21:14.629Z,6.33
2019-05-06T02:23:45.978Z,4.67
2019-05-06T02:26:15.641Z,5.20
2019-05-06T02:28:46.877Z,5.30
2019-05-06T02:31:35.356Z,5.95
2019-05-06T02:34:25.436Z,7.58
2019-05-06T02:36:56.345Z,4.58
2019-05-06T02:39:26.191Z,6.17
2019-05-06T02:41:56.143Z,5.33
2019-05-06T02:44:25.709Z,6.15
2019-05-06T02:47:03.104Z,4.80
2019-05-06T02:49:40.257Z,7.47
2019-05-06T02:52:09.957Z,8.05
2019-05-06T02:54:39.555Z,4.60
2019-05-06T02:57:09.150Z,3.52
2019-05-06T02:59:38.752Z,3.00
2019-05-06T03:02:08.413Z,3.90
2019-05-06T03:04:38.184Z,7.35
2019-05-06T03:07:08.121Z,8.50
2019-05-06T03:09:37.981Z,4.30
2019-05-06T03:12:07.587Z,5.95
2019-05-06T03:14:37.176Z,4.42
2019-05-06T03:17:06.870Z,3.87
2019-05-06T03:19:38.117Z,3.50
2019-05-06T03:22:09.345Z,3.27
2019-05-06T03:24:43.421Z,8.35
2019-05-06T03:29:44.521Z,6.03
2019-05-06T03:32:16.801Z,3.80
2019-05-06T03:35:15.495Z,3.42
2019-05-06T03:37:17.591Z,6.62
2019-05-06T03:39:47.656Z,5.10
2019-05-06T03:42:17.324Z,5.40
2019-05-06T03:44:48.564Z,4.12
2019-05-06T03:47:34.910Z,4.37
2019-05-06T03:50:05.906Z,5.08
2019-05-06T03:52:35.493Z,4.65
2019-05-06T03:55:05.385Z,5.08
2019-05-06T03:57:37.725Z,6.50
2019-05-06T04:00:12.988Z,5.15
2019-05-06T04:02:43.710Z,4.87
2019-05-06T04:05:13.695Z,4.50
2019-05-06T04:07:45.977Z,5.35
2019-05-06T04:10:16.438Z,5.45
2019-05-06T04:12:47.540Z,7.67
2019-05-06T04:15:17.844Z,4.25
2019-05-06T04:17:53.920Z,4.05
2019-05-06T04:20:28.240Z,6.30
2019-05-06T04:23:00.470Z,4.80
2019-05-06T04:25:47.120Z,3.70
2019-05-06T04:28:30.051Z,8.65
2019-05-06T04:31:02.650Z,1.92
2019-05-06T04:33:33.178Z,4.85
2019-05-06T04:36:03.836Z,2.90
2019-05-06T04:38:34.016Z,6.87
2019-05-06T04:41:03.614Z,5.95
2019-05-06T04:43:33.966Z,4.42
2019-05-06T04:46:03.822Z,9.00
2019-05-06T04:48:33.468Z,6.05
2019-05-06T04:51:03.625Z,8.40
2019-05-06T04:53:34.141Z,9.05
2019-05-06T04:56:04.400Z,8.43
2019-05-06T04:58:34.574Z,7.00
2019-05-06T05:01:04.535Z,4.17
2019-05-06T05:03:34.248Z,8.38
2019-05-06T05:06:05.779Z,5.03
2019-05-06T05:08:38.513Z,8.20
2019-05-06T05:11:22.489Z,4.53
2019-05-06T05:16:54.467Z,3.60
2019-05-06T05:19:24.272Z,5.90
2019-05-06T05:21:55.571Z,7.37
2019-05-06T05:24:25.254Z,7.65
2019-05-06T05:26:55.117Z,6.47
2019-05-06T05:29:24.704Z,7.53
2019-05-06T05:31:54.383Z,9.48
2019-05-06T05:34:37.126Z,9.45
2019-05-06T05:36:55.719Z,7.35
2019-05-06T05:39:26.034Z,5.97
2019-05-06T05:41:57.591Z,12.88
2019-05-06T05:44:32.489Z,9.18
2019-05-06T05:47:03.435Z,12.05
2019-05-06T05:49:42.099Z,10.58
2019-05-06T05:52:12.677Z,5.45
2019-05-06T05:54:42.795Z,10.53
2019-05-06T05:57:13.227Z,5.62
2019-05-06T05:59:43.119Z,9.70
2019-05-06T06:02:13.114Z,10.70
2019-05-06T06:04:53.842Z,7.72
2019-05-06T06:07:15.083Z,5.55
2019-05-06T06:09:52.360Z,7.78
2019-05-06T06:12:22.996Z,6.15
2019-05-06T06:14:56.366Z,9.80
2019-05-06T06:17:39.320Z,8.68
2019-05-06T06:20:27.372Z,10.40
2019-05-06T06:22:58.691Z,4.83
2019-05-06T06:25:28.298Z,9.40
2019-05-06T06:27:58.746Z,8.35
2019-05-06T06:30:33.125Z,4.80
2019-05-06T06:33:02.902Z,7.87
2019-05-06T06:35:39.822Z,9.50
2019-05-06T06:38:16.765Z,5.65
2019-05-06T06:40:46.752Z,4.17
2019-05-06T06:43:18.102Z,7.60
2019-05-06T06:45:48.331Z,6.97
2019-05-06T06:48:18.676Z,4.00
2019-05-06T06:50:48.314Z,5.40
2019-05-06T06:53:18.158Z,5.00
2019-05-06T06:55:47.934Z,5.22
2019-05-06T06:58:22.583Z,5.83
2019-05-06T07:00:57.388Z,7.05
2019-05-06T07:03:43.065Z,4.97
2019-05-06T07:06:15.112Z,4.83
2019-05-06T07:08:44.699Z,6.08
2019-05-06T07:11:14.547Z,6.70
2019-05-06T07:13:53.473Z,5.28
2019-05-06T07:16:23.662Z,6.40
2019-05-06T07:18:53.379Z,6.97
2019-05-06T07:21:34.423Z,4.83
2019-05-06T07:24:04.654Z,5.42
2019-05-06T07:26:35.925Z,5.58
2019-05-06T07:29:14.166Z,5.33
2019-05-06T07:31:36.923Z,3.70
2019-05-06T07:34:07.148Z,4.87
2019-05-06T07:36:36.915Z,5.45
2019-05-06T07:39:08.345Z,5.42
2019-05-06T07:41:45.904Z,6.17
2019-05-06T07:44:23.479Z,4.75
2019-05-06T07:47:03.513Z,4.67
2019-05-06T07:49:36.017Z,5.05
2019-05-06T07:52:06.047Z,8.53
2019-05-06T07:54:35.807Z,6.83
2019-05-06T07:57:05.465Z,6.40
2019-05-06T07:59:35.138Z,5.42
2019-05-06T08:02:04.822Z,6.35
2019-05-06T08:04:34.483Z,4.15
2019-05-06T08:07:04.162Z,6.40
2019-05-06T08:09:33.779Z,7.58
2019-05-06T08:12:04.794Z,4.58
2019-05-06T08:14:42.932Z,6.70
2019-05-06T08:18:18.372Z,5.42
2019-05-06T08:20:47.963Z,6.53
2019-05-06T08:23:27.922Z,5.53
2019-05-06T08:26:09.046Z,4.12
2019-05-06T08:28:38.535Z,5.35
2019-05-06T08:31:02.400Z,5.53
2019-05-06T08:33:32.721Z,8.38
2019-05-06T08:36:11.550Z,8.38
2019-05-06T08:38:53.297Z,6.90
2019-05-06T08:41:22.954Z,5.92
2019-05-06T08:43:52.965Z,9.83
2019-05-06T08:46:23.469Z,8.75
2019-05-06T08:48:53.310Z,12.35
2019-05-06T08:51:24.642Z,9.28
2019-05-06T08:53:55.889Z,8.90
2019-05-06T08:56:25.484Z,9.80
2019-05-06T08:58:55.112Z,11.70
2019-05-06T09:01:36.289Z,8.88
2019-05-06T09:04:12.369Z,9.03
2019-05-06T09:06:38.338Z,10.13
2019-05-06T09:09:09.677Z,11.22
2019-05-06T09:11:42.917Z,9.78
2019-05-06T09:14:13.779Z,9.58
2019-05-06T09:16:44.024Z,10.35
2019-05-06T09:19:13.715Z,9.08
2019-05-06T09:21:45.969Z,8.98
2019-05-06T09:24:14.751Z,8.80
2019-05-06T09:26:49.146Z,10.08
2019-05-06T09:29:38.618Z,6.78
2019-05-06T09:32:15.710Z,10.32
2019-05-06T09:34:52.424Z,9.35
2019-05-06T09:37:23.602Z,6.75
2019-05-06T09:39:53.481Z,8.20
2019-05-06T09:42:24.043Z,7.55
2019-05-06T09:44:54.434Z,9.60
2019-05-06T09:47:25.880Z,6.72
2019-05-06T09:49:55.498Z,11.78
2019-05-06T09:52:25.083Z,7.05
2019-05-06T09:55:03.289Z,10.30
2019-05-06T09:57:34.766Z,9.43
2019-05-06T10:00:07.276Z,8.08
2019-05-06T10:02:37.761Z,9.23
2019-05-06T10:05:08.083Z,7.95
2019-05-06T10:07:37.784Z,9.63
2019-05-06T10:10:08.289Z,8.95
2019-05-06T10:12:41.956Z,17.05
2019-05-06T10:15:14.097Z,10.35
2019-05-06T10:17:49.538Z,7.72
2019-05-06T10:20:19.425Z,7.33
2019-05-06T10:22:49.028Z,6.70
2019-05-06T10:25:18.711Z,8.58
2019-05-06T10:27:49.965Z,8.40
2019-05-06T10:30:19.699Z,8.88
2019-05-06T10:32:52.878Z,10.75
2019-05-06T10:35:25.531Z,12.73
2019-05-06T10:38:25.029Z,8.45
2019-05-06T10:41:06.678Z,6.90
2019-05-06T10:43:52.574Z,7.00
2019-05-06T10:46:25.800Z,7.78
2019-05-06T10:48:55.744Z,6.10
2019-05-06T10:51:43.469Z,6.55
2019-05-06T10:54:16.328Z,7.33
2019-05-06T10:59:22.176Z,7.25
2019-05-06T11:02:05.066Z,11.03
2019-05-06T11:04:33.089Z,5.67
2019-05-06T11:07:04.065Z,8.30
2019-05-06T11:09:34.157Z,6.22
2019-05-06T11:12:03.834Z,11.00
2019-05-06T11:14:33.449Z,7.95
2019-05-06T11:17:05.222Z,9.45
2019-05-06T11:19:34.387Z,7.95
2019-05-06T11:22:04.055Z,4.28
2019-05-06T11:24:33.671Z,4.78
2019-05-06T11:27:03.639Z,5.42
2019-05-06T11:29:43.479Z,6.58
2019-05-06T11:32:14.558Z,7.35
2019-05-06T11:35:03.681Z,12.17
2019-05-06T11:37:45.965Z,6.33
2019-05-06T11:42:36.616Z,5.08
2019-05-06T11:45:12.083Z,6.60
2019-05-06T11:47:42.077Z,7.92
2019-05-06T11:50:12.900Z,11.20
2019-05-06T11:52:43.315Z,7.60
2019-05-06T11:55:27.928Z,7.17
2019-05-06T11:57:47.197Z,7.20
2019-05-06T12:00:19.551Z,9.73
2019-05-06T12:02:49.208Z,10.38
2019-05-06T12:05:18.966Z,9.23
2019-05-06T12:08:03.767Z,8.95
2019-05-06T12:10:20.032Z,13.18
2019-05-06T12:12:49.643Z,12.50
2019-05-06T12:15:19.317Z,10.13
2019-05-06T12:17:49.901Z,11.43
2019-05-06T12:20:19.567Z,10.20
2019-05-06T12:22:49.176Z,9.53
2019-05-06T12:25:19.306Z,10.48
2019-05-06T12:27:48.905Z,9.68
2019-05-06T12:30:23.057Z,11.38
2019-05-06T12:32:59.093Z,8.75
2019-05-06T12:35:28.960Z,14.75
2019-05-06T12:38:05.194Z,13.10
2019-05-06T12:43:04.080Z,10.38
2019-05-06T12:45:38.173Z,6.70
2019-05-06T12:48:09.491Z,6.85
2019-05-06T12:50:39.185Z,8.78
2019-05-06T12:53:09.038Z,10.10
2019-05-06T12:55:38.923Z,7.30
2019-05-06T12:58:08.538Z,9.70
2019-05-06T13:00:38.408Z,13.25
2019-05-06T13:03:08.257Z,13.18
2019-05-06T13:05:37.960Z,5.30
2019-05-06T13:08:07.744Z,8.05
2019-05-06T13:10:37.651Z,9.18
2019-05-06T13:13:12.734Z,7.90
2019-05-06T13:15:43.499Z,9.13
2019-05-06T13:18:13.420Z,8.35
2019-05-06T13:20:49.815Z,15.48
2019-05-06T13:23:35.057Z,11.15
2019-05-06T13:26:03.643Z,9.85
2019-05-06T13:28:35.205Z,10.40
2019-05-06T13:31:16.036Z,10.13
2019-05-06T13:33:54.761Z,12.47
2019-05-06T13:36:24.718Z,6.60
2019-05-06T13:39:09.807Z,10.15
2019-05-06T13:41:26.313Z,15.40
2019-05-06T13:43:59.993Z,11.55
2019-05-06T13:46:33.268Z,12.70
2019-05-06T13:49:02.914Z,12.33
2019-05-06T13:51:40.132Z,11.68
2019-05-06T13:54:12.879Z,7.95
2019-05-06T13:56:42.515Z,12.78
2019-05-06T13:59:12.945Z,11.43
2019-05-06T14:01:43.870Z,7.17
2019-05-06T14:04:15.345Z,8.53
2019-05-06T14:06:44.978Z,8.08
2019-05-06T14:09:28.372Z,7.90
2019-05-06T14:11:45.985Z,9.10
2019-05-06T14:14:15.577Z,7.30
2019-05-06T14:16:45.198Z,4.83
2019-05-06T14:19:14.819Z,9.08
2019-05-06T14:21:44.448Z,10.45
2019-05-06T14:24:17.279Z,4.55
2019-05-06T14:26:50.127Z,7.70
2019-05-06T14:29:23.402Z,7.95
2019-05-06T14:34:23.396Z,5.85
2019-05-06T14:36:53.514Z,6.95
2019-05-06T14:39:24.838Z,6.40
2019-05-06T14:41:57.509Z,7.05
2019-05-06T14:44:27.119Z,5.17
2019-05-06T14:46:58.395Z,5.97
2019-05-06T14:49:28.054Z,6.00
2019-05-06T14:51:57.679Z,6.70
2019-05-06T14:54:27.288Z,3.80
2019-05-06T14:57:02.629Z,5.83
2019-05-06T14:59:32.915Z,6.33
2019-05-06T15:02:02.839Z,9.75
2019-05-06T15:04:32.731Z,5.17
2019-05-06T15:07:02.431Z,5.83
2019-05-06T15:09:33.098Z,5.08
2019-05-06T15:12:02.736Z,3.65
2019-05-06T15:14:33.105Z,5.80
2019-05-06T15:17:03.033Z,2.50
2019-05-06T15:19:32.634Z,3.08
2019-05-06T15:22:02.393Z,3.72
2019-05-06T15:24:32.198Z,3.80
2019-05-06T15:27:02.703Z,4.22
2019-05-06T15:29:32.484Z,5.85
2019-05-06T15:32:04.542Z,2.77
2019-05-06T15:34:35.794Z,4.53
2019-05-06T15:37:09.727Z,5.20
2019-05-06T15:39:39.443Z,4.67
2019-05-06T15:42:09.034Z,3.25
2019-05-06T15:44:38.649Z,4.87
2019-05-06T15:47:08.261Z,2.60
2019-05-06T15:49:37.883Z,2.85
2019-05-06T15:52:07.793Z,3.42
2019-05-06T15:54:37.433Z,2.95
2019-05-06T15:57:07.079Z,3.02
2019-05-06T15:59:36.702Z,3.72
2019-05-06T16:02:06.375Z,2.17
2019-05-06T16:04:35.982Z,3.25
2019-05-06T16:07:05.646Z,5.65
2019-05-06T16:09:35.539Z,4.33
2019-05-06T16:12:05.330Z,3.37
2019-05-06T16:14:35.254Z,6.80
2019-05-06T16:17:05.326Z,3.10
2019-05-06T16:19:34.921Z,3.98
2019-05-06T16:22:04.518Z,4.53
2019-05-06T16:24:39.733Z,2.15
2019-05-06T16:27:09.620Z,7.22
2019-05-06T16:29:39.305Z,6.33
2019-05-06T16:32:09.941Z,4.33
2019-05-06T16:34:39.572Z,13.80
2019-05-06T16:37:09.935Z,6.20
2019-05-06T16:39:39.556Z,4.15
2019-05-06T16:42:12.799Z,4.53
2019-05-06T16:44:45.156Z,4.90
2019-05-06T16:47:15.113Z,2.80
2019-05-06T16:49:44.733Z,4.40
2019-05-06T16:52:14.483Z,5.25
2019-05-06T16:54:44.090Z,3.15
2019-05-06T16:57:17.973Z,1.85
2019-05-06T16:59:47.567Z,3.65
2019-05-06T17:02:18.812Z,5.03
2019-05-06T17:04:52.535Z,3.27
2019-05-06T17:07:22.233Z,3.40
2019-05-06T17:09:52.617Z,4.65
2019-05-06T17:12:22.489Z,4.92
2019-05-06T17:14:52.929Z,3.27
2019-05-06T17:17:23.562Z,5.70
2019-05-06T17:19:53.220Z,14.63
2019-05-06T17:22:23.012Z,7.87
2019-05-06T17:24:52.927Z,2.47
2019-05-06T17:27:23.608Z,2.40
2019-05-06T17:29:58.871Z,4.40
2019-05-06T17:32:30.099Z,3.12
2019-05-06T17:35:02.601Z,4.55
2019-05-06T17:37:45.468Z,4.37
2019-05-06T17:40:22.819Z,4.92
2019-05-06T17:42:53.286Z,3.60
2019-05-06T17:45:43.211Z,6.92
2019-05-06T17:48:23.231Z,5.58
2019-05-06T17:51:13.725Z,4.70
2019-05-06T17:53:45.420Z,4.28
2019-05-06T17:56:15.017Z,2.80
2019-05-06T17:58:45.332Z,3.45
2019-05-06T18:01:17.791Z,4.30
2019-05-06T18:03:48.845Z,2.30
2019-05-06T18:06:18.507Z,5.15
2019-05-06T18:08:48.124Z,2.90
2019-05-06T18:11:17.748Z,3.87
2019-05-06T18:13:47.354Z,2.55
2019-05-06T18:16:17.041Z,2.55
2019-05-06T18:18:46.667Z,3.50
2019-05-06T18:21:16.346Z,3.95
2019-05-06T18:23:46.017Z,4.78
2019-05-06T18:26:15.699Z,2.30
2019-05-06T18:28:45.325Z,4.15
2019-05-06T18:31:14.928Z,4.97
2019-05-06T18:33:44.539Z,2.87
2019-05-06T18:36:14.148Z,3.35
2019-05-06T18:38:44.266Z,1.82
2019-05-06T18:41:14.138Z,3.35
2019-05-06T18:43:44.008Z,1.50
2019-05-06T18:46:13.676Z,0.75
2019-05-06T18:48:43.286Z,0.82
2019-05-06T18:51:12.912Z,2.27
2019-05-06T18:53:42.614Z,1.10
2019-05-06T18:56:12.727Z,1.47
2019-05-06T18:58:42.953Z,1.87
2019-05-06T19:01:13.337Z,3.47
2019-05-06T19:03:52.471Z,0.98
2019-05-06T19:06:23.200Z,1.15
2019-05-06T19:08:54.570Z,0.90
2019-05-06T19:11:24.196Z,1.70
2019-05-06T19:13:53.768Z,1.07
2019-05-06T19:16:23.476Z,0.72
2019-05-06T19:18:53.107Z,2.15
2019-05-06T19:21:24.512Z,2.45
2019-05-06T19:23:54.878Z,1.50
2019-05-06T19:26:24.586Z,2.47
2019-05-06T19:28:54.248Z,1.50
2019-05-06T19:31:24.435Z,2.08
2019-05-06T19:33:54.046Z,1.92
2019-05-06T19:36:23.714Z,1.50
2019-05-06T19:38:53.346Z,1.45
2019-05-06T19:41:22.967Z,1.47
2019-05-06T19:43:52.824Z,4.08
2019-05-06T19:46:22.522Z,2.37
2019-05-06T19:48:52.527Z,1.80
2019-05-06T19:51:22.634Z,1.90
2019-05-06T19:53:52.455Z,2.00
2019-05-06T19:56:23.246Z,1.82
2019-05-06T19:58:53.098Z,4.22
2019-05-06T20:01:22.987Z,1.25
2019-05-06T20:03:52.800Z,1.98
2019-05-06T20:06:41.706Z,2.58
2019-05-06T20:09:17.094Z,1.72
2019-05-06T20:11:47.586Z,2.17
2019-05-06T20:14:17.190Z,1.40
2019-05-06T20:16:47.047Z,1.30
2019-05-06T20:19:28.137Z,2.87
2019-05-06T20:21:47.979Z,2.55
2019-05-06T20:24:17.622Z,1.55
2019-05-06T20:26:48.099Z,3.12
2019-05-06T20:29:17.727Z,1.00
2019-05-06T20:31:47.350Z,1.57
2019-05-06T20:34:17.230Z,1.75
2019-05-06T20:36:46.831Z,2.92
2019-05-06T20:39:16.442Z,2.10
2019-05-06T20:41:46.059Z,4.42
2019-05-06T20:44:15.921Z,2.33
2019-05-06T20:46:45.518Z,2.70
2019-05-06T20:49:15.209Z,2.22
2019-05-06T20:51:44.798Z,2.00
2019-05-06T20:54:14.392Z,2.08
2019-05-06T20:56:44.272Z,2.25
2019-05-06T20:59:14.214Z,1.85
2019-05-06T21:01:43.812Z,2.22
2019-05-06T21:04:13.472Z,1.77
2019-05-06T21:06:43.069Z,1.62
2019-05-06T21:09:12.762Z,3.35
2019-05-06T21:11:42.352Z,4.28
2019-05-06T21:14:13.275Z,2.90
2019-05-06T21:16:43.042Z,4.05
2019-05-06T21:19:12.851Z,2.72
2019-05-06T21:21:43.152Z,2.95
2019-05-06T21:24:13.248Z,2.92
2019-05-06T21:26:46.096Z,3.95
2019-05-06T21:29:14.215Z,2.35
2019-05-06T21:31:52.918Z,2.75
2019-05-06T21:34:22.402Z,2.92
2019-05-06T21:36:53.268Z,3.42
2019-05-06T21:39:23.100Z,2.47
2019-05-06T21:41:52.737Z,4.45
2019-05-06T21:44:22.944Z,2.00
2019-05-06T21:46:54.053Z,2.72
2019-05-06T21:49:24.013Z,2.87
2019-05-06T21:51:53.620Z,2.80
2019-05-06T21:54:23.329Z,3.05
2019-05-06T21:56:53.290Z,4.00
2019-05-06T21:59:22.986Z,2.30
2019-05-06T22:01:52.609Z,2.50
2019-05-06T22:04:23.179Z,2.42
2019-05-06T22:06:52.891Z,2.92
2019-05-06T22:09:23.613Z,2.72
2019-05-06T22:11:53.194Z,4.22
2019-05-06T22:14:23.124Z,3.62
2019-05-06T22:16:52.797Z,3.45
2019-05-06T22:19:22.419Z,2.40
2019-05-06T22:22:05.768Z,3.05
2019-05-06T22:24:43.996Z,1.75
2019-05-06T22:27:14.157Z,2.08
2019-05-06T22:29:43.824Z,2.55
2019-05-06T22:32:14.886Z,2.62
2019-05-06T22:34:44.647Z,3.35
2019-05-06T22:37:14.747Z,2.37
2019-05-06T22:39:44.351Z,3.22
2019-05-06T22:42:14.052Z,3.08
2019-05-06T22:44:43.692Z,3.15
2019-05-06T22:47:13.378Z,3.10
2019-05-06T22:49:42.998Z,3.08
2019-05-06T22:52:12.736Z,3.55
2019-05-06T22:54:43.357Z,2.33
2019-05-06T22:57:13.183Z,2.42
2019-05-06T22:59:42.930Z,3.52
2019-05-06T23:02:14.423Z,2.33
2019-05-06T23:04:45.750Z,4.17
2019-05-06T23:07:15.397Z,5.03
2019-05-06T23:09:44.981Z,2.02
2019-05-06T23:12:14.572Z,2.67
2019-05-06T23:14:44.202Z,2.05
2019-05-06T23:17:14.129Z,2.27
2019-05-06T23:19:43.742Z,3.22
2019-05-06T23:22:13.586Z,3.37
2019-05-06T23:24:43.324Z,2.80
2019-05-06T23:27:12.926Z,2.50
2019-05-06T23:29:45.001Z,2.25
2019-05-06T23:32:14.455Z,3.45
2019-05-06T23:34:44.131Z,2.90
2019-05-06T23:37:19.010Z,3.50
2019-05-06T23:40:43.027Z,3.02
2019-05-06T23:44:06.804Z,3.72
2019-05-06T23:47:31.435Z,3.12
2019-05-06T23:50:54.913Z,4.45
2019-05-06T23:54:18.990Z,3.95
2019-05-06T23:59:20.086Z,3.05
